Time;durP1;ratioP1;P1;durP2;ratioP2;P2;SDS_P1;SDS_P2;PMS_P1;PMS_P2;Temp;Humidity;BMP_temperature;BMP_pressure;BME280_temperature;BME280_humidity;BME280_pressure;Samples;Min_cycle;Max_cycle;Signal;HPM_P1;HPM_P2
2023/04/29 00:01:06;;;;;;;40.28;6.68;;;;;;;;;;5090066;28;20035;-58
2023/04/29 00:03:33;;;;;;;43.40;7.15;;;;;;;;;;5090962;28;20032;-56
2023/04/29 00:06:01;;;;;;;40.78;7.28;;;;;;;;;;5090364;28;20580;-55
2023/04/29 00:08:28;;;;;;;32.10;6.72;;;;;;;;;;5090644;28;20020;-53
2023/04/29 00:10:55;;;;;;;45.35;6.55;;;;;;;;;;5089805;28;20024;-54
2023/04/29 00:13:22;;;;;;;41.65;7.22;;;;;;;;;;5090634;28;20028;-55
2023/04/29 00:15:49;;;;;;;36.83;8.10;;;;;;;;;;5089807;28;20436;-49
2023/04/29 00:18:16;;;;;;;43.20;7.22;;;;;;;;;;5090489;28;20031;-52
2023/04/29 00:20:43;;;;;;;31.58;6.65;;;;;;;;;;5090692;28;20810;-49
2023/04/29 00:23:10;;;;;;;37.25;6.15;;;;;;;;;;5090495;28;20032;-50
2023/04/29 00:25:37;;;;;;;40.88;6.88;;;;;;;;;;5090572;28;20040;-50
2023/04/29 00:28:05;;;;;;;39.00;6.85;;;;;;;;;;5090251;28;20135;-51
2023/04/29 00:30:35;;;;;;;34.33;7.18;;;;;;;;;;5088950;28;20102;-54
2023/04/29 00:33:03;;;;;;;43.47;6.85;;;;;;;;;;5091179;28;20054;-50
2023/04/29 00:35:30;;;;;;;34.20;6.35;;;;;;;;;;5096821;28;20032;-49
2023/04/29 00:37:57;;;;;;;36.75;6.75;;;;;;;;;;5096991;28;20486;-53
2023/04/29 00:40:24;;;;;;;45.80;6.75;;;;;;;;;;5096808;28;20035;-50
2023/04/29 00:42:51;;;;;;;37.42;6.85;;;;;;;;;;5096478;28;20032;-49
2023/04/29 00:45:18;;;;;;;45.30;5.97;;;;;;;;;;5096869;28;20089;-50
2023/04/29 00:47:45;;;;;;;42.63;7.00;;;;;;;;;;5096661;28;20040;-50
2023/04/29 00:50:12;;;;;;;32.97;6.53;;;;;;;;;;5096838;28;20035;-49
2023/04/29 00:52:40;;;;;;;36.85;6.95;;;;;;;;;;5096725;28;20114;-48
2023/04/29 00:55:07;;;;;;;37.78;7.40;;;;;;;;;;5096864;28;20024;-49
2023/04/29 00:57:35;;;;;;;39.45;6.75;;;;;;;;;;5097024;28;20078;-50
2023/04/29 01:00:02;;;;;;;38.88;7.18;;;;;;;;;;5096981;28;20142;-51
2023/04/29 01:02:29;;;;;;;37.47;6.75;;;;;;;;;;5096172;28;20142;-49
2023/04/29 01:04:56;;;;;;;32.75;6.55;;;;;;;;;;5096988;28;20032;-49
2023/04/29 01:07:42;;;;;;;36.35;6.60;;;;;;;;;;5096854;28;20027;-49
2023/04/29 01:10:09;;;;;;;36.08;7.47;;;;;;;;;;5096687;28;20038;-50
2023/04/29 01:12:42;;;;;;;37.78;9.45;;;;;;;;;;5096198;28;20760;-50
2023/04/29 01:15:10;;;;;;;51.05;12.95;;;;;;;;;;5096588;28;20032;-50
2023/04/29 01:17:43;;;;;;;68.53;16.75;;;;;;;;;;5096616;28;20389;-49
2023/04/29 01:20:11;;;;;;;77.57;20.63;;;;;;;;;;5096407;28;20538;-49
2023/04/29 01:22:38;;;;;;;80.70;21.70;;;;;;;;;;5096013;28;20711;-49
2023/04/29 01:25:06;;;;;;;106.40;23.88;;;;;;;;;;5096226;28;20114;-56
2023/04/29 01:27:48;;;;;;;92.13;25.23;;;;;;;;;;5094759;28;20044;-48
2023/04/29 01:30:15;;;;;;;95.20;26.55;;;;;;;;;;5096160;28;20027;-53
2023/04/29 01:32:52;;;;;;;82.70;23.65;;;;;;;;;;5096313;28;20436;-55
2023/04/29 01:35:19;;;;;;;82.57;24.70;;;;;;;;;;5096426;28;20467;-55
2023/04/29 01:37:56;;;;;;;80.28;23.23;;;;;;;;;;5096208;28;20089;-51
2023/04/29 01:40:26;;;;;;;80.88;23.70;;;;;;;;;;5095852;28;20500;-55
2023/04/29 01:43:00;;;;;;;89.15;25.17;;;;;;;;;;5095343;28;20042;-53
2023/04/29 01:45:29;;;;;;;79.85;22.95;;;;;;;;;;5091283;28;20112;-49
2023/04/29 01:47:58;;;;;;;71.68;21.33;;;;;;;;;;5092107;28;20501;-48
2023/04/29 01:50:25;;;;;;;77.40;21.67;;;;;;;;;;5092368;28;20457;-54
2023/04/29 01:55:21;;;;;;;62.85;18.45;;;;;;;;;;5052515;28;20048;-51
2023/04/29 01:57:48;;;;;;;66.20;19.35;;;;;;;;;;5058322;28;20148;-50
2023/04/29 02:00:15;;;;;;;63.50;16.88;;;;;;;;;;5060620;28;20033;-55
2023/04/29 02:02:42;;;;;;;67.60;17.98;;;;;;;;;;5069405;28;20032;-46
2023/04/29 02:05:10;;;;;;;56.70;16.10;;;;;;;;;;5069257;28;20429;-46
2023/04/29 02:07:37;;;;;;;66.15;17.33;;;;;;;;;;5064853;28;20113;-45
2023/04/29 02:10:04;;;;;;;60.38;14.55;;;;;;;;;;5071190;28;20039;-47
2023/04/29 02:12:31;;;;;;;49.38;15.35;;;;;;;;;;5071510;28;20036;-47
2023/04/29 02:14:59;;;;;;;51.80;15.70;;;;;;;;;;5038794;28;20029;-48
2023/04/29 02:17:26;;;;;;;47.92;14.82;;;;;;;;;;5069105;28;20123;-48
2023/04/29 02:19:53;;;;;;;50.97;15.13;;;;;;;;;;5072187;28;20127;-49
2023/04/29 02:22:21;;;;;;;51.08;14.98;;;;;;;;;;5072138;28;20024;-45
2023/04/29 02:24:48;;;;;;;47.20;14.13;;;;;;;;;;5068732;28;20122;-46
2023/04/29 02:27:15;;;;;;;52.30;13.95;;;;;;;;;;5071457;28;20106;-46
2023/04/29 02:29:42;;;;;;;49.50;14.32;;;;;;;;;;5067907;28;20478;-46
2023/04/29 02:32:09;;;;;;;37.13;12.93;;;;;;;;;;5061824;28;20021;-48
2023/04/29 02:34:37;;;;;;;41.05;12.45;;;;;;;;;;5060268;28;20422;-46
2023/04/29 02:37:04;;;;;;;41.25;13.50;;;;;;;;;;5060087;28;20028;-46
2023/04/29 02:39:31;;;;;;;47.80;13.93;;;;;;;;;;5053583;28;20028;-46
2023/04/29 02:41:58;;;;;;;50.80;13.88;;;;;;;;;;5066817;28;20390;-45
2023/04/29 02:44:25;;;;;;;44.67;12.60;;;;;;;;;;5072712;28;20033;-45
2023/04/29 02:46:52;;;;;;;41.15;13.57;;;;;;;;;;5072644;28;20021;-45
2023/04/29 02:49:19;;;;;;;38.17;12.80;;;;;;;;;;5073002;28;20048;-49
2023/04/29 02:51:48;;;;;;;38.88;11.93;;;;;;;;;;5068599;28;20059;-47
2023/04/29 02:54:19;;;;;;;39.15;11.57;;;;;;;;;;5075995;28;20130;-47
2023/04/29 02:56:46;;;;;;;33.85;10.73;;;;;;;;;;5082591;28;20028;-47
2023/04/29 02:59:13;;;;;;;33.60;10.20;;;;;;;;;;5080961;28;20470;-48
2023/04/29 03:01:40;;;;;;;31.05;9.05;;;;;;;;;;5079736;28;20437;-47
2023/04/29 03:04:07;;;;;;;26.35;8.57;;;;;;;;;;5072469;28;20040;-48
2023/04/29 03:06:34;;;;;;;26.70;8.63;;;;;;;;;;5072617;28;20025;-47
2023/04/29 03:09:01;;;;;;;31.27;8.80;;;;;;;;;;5072666;28;20426;-47
2023/04/29 03:11:28;;;;;;;25.27;9.43;;;;;;;;;;5072132;28;20017;-48
2023/04/29 03:13:55;;;;;;;32.15;8.77;;;;;;;;;;5072391;28;20479;-49
2023/04/29 03:16:23;;;;;;;27.88;8.00;;;;;;;;;;5072527;28;20032;-48
2023/04/29 03:18:50;;;;;;;25.05;7.85;;;;;;;;;;5072111;28;20111;-47
2023/04/29 03:21:17;;;;;;;28.15;8.35;;;;;;;;;;5072071;28;20055;-48
2023/04/29 03:23:44;;;;;;;24.92;7.10;;;;;;;;;;5072124;28;20050;-47
2023/04/29 03:26:11;;;;;;;20.48;6.63;;;;;;;;;;5072149;28;20107;-48
2023/04/29 03:28:38;;;;;;;24.33;7.18;;;;;;;;;;5072275;28;20036;-48
2023/04/29 03:31:05;;;;;;;26.45;7.22;;;;;;;;;;5072053;28;20612;-47
2023/04/29 03:33:32;;;;;;;23.20;6.25;;;;;;;;;;5071926;28;20021;-48
2023/04/29 03:35:59;;;;;;;24.55;6.90;;;;;;;;;;5072001;28;20032;-48
2023/04/29 03:38:26;;;;;;;24.85;7.22;;;;;;;;;;5071876;28;20887;-47
2023/04/29 03:40:53;;;;;;;21.92;6.85;;;;;;;;;;5072131;28;20021;-48
2023/04/29 03:43:20;;;;;;;16.88;5.68;;;;;;;;;;5071775;28;20118;-48
2023/04/29 03:45:47;;;;;;;20.65;5.90;;;;;;;;;;5071937;28;20365;-48
2023/04/29 03:48:14;;;;;;;25.92;5.93;;;;;;;;;;5071770;28;20044;-48
2023/04/29 03:50:41;;;;;;;25.42;6.15;;;;;;;;;;5071879;28;20016;-46
2023/04/29 03:53:08;;;;;;;24.80;6.55;;;;;;;;;;5071473;28;20396;-47
2023/04/29 03:55:35;;;;;;;17.90;5.45;;;;;;;;;;5071721;28;20132;-46
2023/04/29 03:58:03;;;;;;;20.02;6.05;;;;;;;;;;5071460;28;20107;-46
2023/04/29 04:00:30;;;;;;;17.83;5.85;;;;;;;;;;5071647;28;20116;-46
2023/04/29 04:02:58;;;;;;;18.67;6.00;;;;;;;;;;5071596;28;20017;-46
2023/04/29 04:05:25;;;;;;;18.52;5.55;;;;;;;;;;5053433;28;20036;-48
2023/04/29 04:07:53;;;;;;;16.98;5.30;;;;;;;;;;5070993;28;20032;-48
2023/04/29 04:10:20;;;;;;;22.42;5.43;;;;;;;;;;5071618;28;20020;-47
2023/04/29 04:12:47;;;;;;;19.10;5.40;;;;;;;;;;5071303;28;20119;-46
2023/04/29 04:15:15;;;;;;;17.13;5.28;;;;;;;;;;5071601;28;20060;-47
2023/04/29 04:17:43;;;;;;;16.90;5.20;;;;;;;;;;5070995;28;20406;-46
2023/04/29 04:20:10;;;;;;;18.63;4.80;;;;;;;;;;5071560;28;20034;-47
2023/04/29 04:22:37;;;;;;;16.23;4.82;;;;;;;;;;5071359;28;20048;-46
2023/04/29 04:25:10;;;;;;;15.27;5.13;;;;;;;;;;5071335;28;20032;-46
2023/04/29 04:27:37;;;;;;;19.58;5.10;;;;;;;;;;5071220;28;20555;-46
2023/04/29 04:30:04;;;;;;;15.98;4.35;;;;;;;;;;5071350;28;20482;-46
2023/04/29 04:32:31;;;;;;;15.70;4.60;;;;;;;;;;5071280;28;20508;-46
2023/04/29 04:34:58;;;;;;;16.67;4.65;;;;;;;;;;5053285;28;20390;-47
2023/04/29 04:37:25;;;;;;;20.45;4.80;;;;;;;;;;5071391;28;20029;-47
2023/04/29 04:39:51;;;;;;;12.43;4.65;;;;;;;;;;5071157;28;20091;-47
2023/04/29 04:42:18;;;;;;;17.08;5.07;;;;;;;;;;5071327;28;20052;-46
2023/04/29 04:44:45;;;;;;;13.57;4.45;;;;;;;;;;5071022;28;20025;-47
2023/04/29 04:47:12;;;;;;;12.63;4.13;;;;;;;;;;5071269;28;20031;-47
2023/04/29 04:49:40;;;;;;;16.33;4.25;;;;;;;;;;5053078;28;20473;-47
2023/04/29 04:52:07;;;;;;;14.23;4.00;;;;;;;;;;5070784;28;20036;-47
2023/04/29 05:04:12;;;;;;;15.77;3.88;;;;;;;;;;5008849;28;20550;-47
2023/04/29 05:06:39;;;;;;;13.15;4.18;;;;;;;;;;5062268;28;20060;-46
2023/04/29 05:09:05;;;;;;;11.85;3.75;;;;;;;;;;5070892;28;20798;-47
2023/04/29 05:11:32;;;;;;;13.43;3.90;;;;;;;;;;5052905;28;20033;-48
2023/04/29 05:13:59;;;;;;;11.13;3.83;;;;;;;;;;5070786;28;20108;-47
2023/04/29 05:16:26;;;;;;;8.50;3.60;;;;;;;;;;5070932;28;20029;-46
2023/04/29 05:18:53;;;;;;;14.32;4.03;;;;;;;;;;5071490;28;20040;-46
2023/04/29 05:21:20;;;;;;;10.55;3.80;;;;;;;;;;5074694;28;20033;-48
2023/04/29 05:23:47;;;;;;;14.63;4.10;;;;;;;;;;5074457;28;20082;-47
2023/04/29 05:26:14;;;;;;;12.00;4.00;;;;;;;;;;5074742;28;20036;-46
2023/04/29 05:28:41;;;;;;;10.50;3.53;;;;;;;;;;5074407;28;20063;-47
2023/04/29 05:31:08;;;;;;;10.95;3.88;;;;;;;;;;5074192;28;20050;-46
2023/04/29 05:33:35;;;;;;;16.08;4.28;;;;;;;;;;5074297;28;20412;-46
2023/04/29 05:36:02;;;;;;;13.88;4.07;;;;;;;;;;5056436;28;20372;-47
2023/04/29 05:38:29;;;;;;;9.18;3.33;;;;;;;;;;5074365;28;20036;-46
2023/04/29 05:40:56;;;;;;;12.77;3.65;;;;;;;;;;5074299;28;20028;-47
2023/04/29 05:43:23;;;;;;;8.38;3.80;;;;;;;;;;5074186;28;20029;-46
2023/04/29 05:45:50;;;;;;;11.45;3.45;;;;;;;;;;5074335;28;20379;-47
2023/04/29 05:48:17;;;;;;;12.00;3.40;;;;;;;;;;5074251;28;20032;-47
2023/04/29 05:50:46;;;;;;;9.52;3.42;;;;;;;;;;5075940;28;20070;-48
2023/04/29 05:53:13;;;;;;;10.85;3.80;;;;;;;;;;5094200;28;20070;-47
2023/04/29 05:55:43;;;;;;;11.13;3.78;;;;;;;;;;5094331;28;20027;-48
2023/04/29 05:58:10;;;;;;;14.82;3.45;;;;;;;;;;5094325;28;20075;-47
2023/04/29 06:00:38;;;;;;;14.10;3.70;;;;;;;;;;5094039;28;20062;-48
2023/04/29 06:03:05;;;;;;;13.50;3.80;;;;;;;;;;5073175;28;20090;-47
2023/04/29 06:05:32;;;;;;;10.23;3.72;;;;;;;;;;5073965;28;20021;-49
2023/04/29 06:08:00;;;;;;;12.93;3.60;;;;;;;;;;5073553;28;20036;-48
2023/04/29 06:10:26;;;;;;;9.23;3.55;;;;;;;;;;5073802;28;20064;-47
2023/04/29 06:12:53;;;;;;;12.82;3.92;;;;;;;;;;5073717;28;20064;-47
2023/04/29 06:15:20;;;;;;;8.30;3.30;;;;;;;;;;5073805;28;20032;-48
2023/04/29 06:17:47;;;;;;;10.82;3.63;;;;;;;;;;5073311;28;20111;-47
2023/04/29 06:20:14;;;;;;;11.15;3.72;;;;;;;;;;5073441;28;20028;-48
2023/04/29 06:22:41;;;;;;;11.80;3.47;;;;;;;;;;5073547;28;20032;-48
2023/04/29 06:25:08;;;;;;;14.55;3.40;;;;;;;;;;5073539;28;20025;-47
2023/04/29 06:27:35;;;;;;;10.13;3.58;;;;;;;;;;5073358;28;20112;-48
2023/04/29 06:30:02;;;;;;;9.80;3.72;;;;;;;;;;5073191;28;20101;-47
2023/04/29 06:32:29;;;;;;;11.65;3.38;;;;;;;;;;5072834;28;20036;-47
2023/04/29 06:34:56;;;;;;;9.35;3.10;;;;;;;;;;5073372;28;20033;-49
2023/04/29 06:37:23;;;;;;;9.75;3.10;;;;;;;;;;5073243;28;20032;-47
2023/04/29 06:39:50;;;;;;;6.88;2.53;;;;;;;;;;5073227;28;20486;-48
2023/04/29 06:42:17;;;;;;;7.30;3.08;;;;;;;;;;5073032;28;20030;-48
2023/04/29 06:44:44;;;;;;;8.48;3.25;;;;;;;;;;5073114;28;20031;-48
2023/04/29 06:47:11;;;;;;;7.90;2.95;;;;;;;;;;5073230;28;20036;-47
2023/04/29 06:49:38;;;;;;;9.43;3.53;;;;;;;;;;5073056;28;20025;-47
2023/04/29 06:52:05;;;;;;;9.70;3.13;;;;;;;;;;5072998;28;20037;-48
2023/04/29 06:54:32;;;;;;;7.53;3.13;;;;;;;;;;5072720;28;20036;-47
2023/04/29 06:56:59;;;;;;;7.97;3.08;;;;;;;;;;5072684;28;20514;-47
2023/04/29 06:59:26;;;;;;;14.00;3.20;;;;;;;;;;5072702;28;20372;-48
2023/04/29 07:01:53;;;;;;;8.85;3.10;;;;;;;;;;5072818;28;20082;-47
2023/04/29 07:04:20;;;;;;;9.77;2.90;;;;;;;;;;5072562;28;20033;-48
2023/04/29 07:06:47;;;;;;;7.22;2.92;;;;;;;;;;5072510;28;20487;-47
2023/04/29 07:09:15;;;;;;;10.32;3.45;;;;;;;;;;5072613;28;20025;-47
2023/04/29 07:11:42;;;;;;;10.95;3.35;;;;;;;;;;5072487;28;20051;-47
2023/04/29 07:14:09;;;;;;;9.50;2.90;;;;;;;;;;5072515;28;20056;-47
2023/04/29 07:16:36;;;;;;;8.02;3.00;;;;;;;;;;5072537;28;20035;-51
2023/04/29 07:19:03;;;;;;;10.50;3.15;;;;;;;;;;5072520;28;20033;-48
2023/04/29 07:21:30;;;;;;;6.00;2.95;;;;;;;;;;5072287;28;20042;-47
2023/04/29 07:23:59;;;;;;;8.02;3.08;;;;;;;;;;5071867;28;20036;-47
2023/04/29 07:26:26;;;;;;;8.27;2.97;;;;;;;;;;5072148;28;20036;-48
2023/04/29 07:28:53;;;;;;;5.80;2.80;;;;;;;;;;5072107;28;20028;-47
2023/04/29 07:31:21;;;;;;;8.00;3.22;;;;;;;;;;5072311;28;20115;-50
2023/04/29 07:33:48;;;;;;;6.90;2.70;;;;;;;;;;5072179;28;20041;-47
2023/04/29 07:36:15;;;;;;;9.75;2.78;;;;;;;;;;5072156;28;20025;-47
2023/04/29 07:38:42;;;;;;;6.88;2.88;;;;;;;;;;5072060;28;20545;-48
2023/04/29 07:41:09;;;;;;;9.25;3.22;;;;;;;;;;5072144;28;20509;-47
2023/04/29 07:43:36;;;;;;;9.32;3.13;;;;;;;;;;5070881;28;20108;-48
2023/04/29 07:46:03;;;;;;;12.05;3.30;;;;;;;;;;5071966;28;20025;-47
2023/04/29 07:48:29;;;;;;;9.02;3.22;;;;;;;;;;5071928;28;20028;-48
2023/04/29 07:50:56;;;;;;;7.35;2.85;;;;;;;;;;5071738;28;20385;-48
2023/04/29 07:53:23;;;;;;;12.20;3.10;;;;;;;;;;5071967;28;20390;-48
2023/04/29 07:55:50;;;;;;;9.25;3.17;;;;;;;;;;5071606;28;20024;-47
2023/04/29 07:58:17;;;;;;;8.25;2.97;;;;;;;;;;5071626;28;20068;-47
2023/04/29 08:00:46;;;;;;;7.45;2.90;;;;;;;;;;5053522;28;20375;-48
2023/04/29 08:03:13;;;;;;;7.63;2.97;;;;;;;;;;5071578;28;20750;-47
2023/04/29 08:05:39;;;;;;;7.65;3.08;;;;;;;;;;5071417;28;20033;-48
2023/04/29 08:08:06;;;;;;;7.85;2.97;;;;;;;;;;5071666;28;20107;-47
2023/04/29 08:10:33;;;;;;;6.55;3.17;;;;;;;;;;5071477;28;20066;-47
2023/04/29 08:13:00;;;;;;;6.95;2.80;;;;;;;;;;5071636;28;20036;-48
2023/04/29 08:15:28;;;;;;;7.55;2.72;;;;;;;;;;5071762;28;20066;-47
2023/04/29 08:17:55;;;;;;;9.45;3.25;;;;;;;;;;5071587;28;20646;-48
2023/04/29 08:20:22;;;;;;;7.63;2.58;;;;;;;;;;5071701;28;20033;-47
2023/04/29 08:22:49;;;;;;;6.43;2.88;;;;;;;;;;5071463;28;20071;-47
2023/04/29 08:25:16;;;;;;;8.98;3.13;;;;;;;;;;5071576;28;20124;-48
2023/04/29 08:27:44;;;;;;;5.10;2.80;;;;;;;;;;5071542;28;20375;-48
2023/04/29 08:30:11;;;;;;;6.93;2.75;;;;;;;;;;5071434;28;20040;-47
2023/04/29 08:32:38;;;;;;;8.07;2.85;;;;;;;;;;5071223;28;20078;-48
2023/04/29 08:35:06;;;;;;;6.95;2.78;;;;;;;;;;5071448;28;20421;-47
2023/04/29 08:37:32;;;;;;;8.35;3.10;;;;;;;;;;5071336;28;20063;-47
2023/04/29 08:39:59;;;;;;;6.20;2.72;;;;;;;;;;5071470;28;20025;-47
2023/04/29 08:42:36;;;;;;;7.63;2.70;;;;;;;;;;5071337;28;20482;-48
2023/04/29 08:45:04;;;;;;;10.65;2.78;;;;;;;;;;5071272;28;20036;-48
2023/04/29 08:47:32;;;;;;;8.77;2.97;;;;;;;;;;5071424;28;20040;-47
2023/04/29 08:50:03;;;;;;;10.63;2.88;;;;;;;;;;5071363;28;20074;-47
2023/04/29 08:52:31;;;;;;;8.40;3.00;;;;;;;;;;5071132;28;20031;-47
2023/04/29 08:54:58;;;;;;;6.35;3.05;;;;;;;;;;5073952;28;20036;-47
2023/04/29 08:57:30;;;;;;;7.68;2.67;;;;;;;;;;5075113;28;20513;-47
2023/04/29 09:00:00;;;;;;;6.85;2.97;;;;;;;;;;5075125;28;20063;-48
2023/04/29 09:02:27;;;;;;;9.43;3.38;;;;;;;;;;5074956;28;20363;-47
2023/04/29 09:05:00;;;;;;;6.55;2.33;;;;;;;;;;5075131;28;20037;-47
2023/04/29 09:07:28;;;;;;;5.25;2.88;;;;;;;;;;5074815;28;20694;-48
2023/04/29 09:09:56;;;;;;;7.00;2.83;;;;;;;;;;5057240;28;20032;-47
2023/04/29 09:12:23;;;;;;;9.00;2.80;;;;;;;;;;5074736;28;20094;-48
2023/04/29 09:14:50;;;;;;;7.90;2.67;;;;;;;;;;5074985;28;20031;-48
2023/04/29 09:17:17;;;;;;;7.78;2.80;;;;;;;;;;5074885;28;20591;-47
2023/04/29 09:19:44;;;;;;;8.18;3.00;;;;;;;;;;5074522;28;20037;-48
2023/04/29 09:22:11;;;;;;;5.13;2.97;;;;;;;;;;5074653;28;20028;-47
2023/04/29 09:24:38;;;;;;;6.90;3.17;;;;;;;;;;5074818;28;20033;-47
2023/04/29 09:27:06;;;;;;;6.68;3.03;;;;;;;;;;5074773;28;20553;-48
2023/04/29 09:29:35;;;;;;;8.98;3.13;;;;;;;;;;5074646;28;20437;-47
2023/04/29 09:32:18;;;;;;;10.98;3.30;;;;;;;;;;5074292;28;20040;-47
2023/04/29 09:34:45;;;;;;;8.80;3.20;;;;;;;;;;5074614;28;20478;-48
2023/04/29 09:37:40;;;;;;;8.68;3.25;;;;;;;;;;5074435;28;20508;-49
2023/04/29 09:40:16;;;;;;;6.90;2.97;;;;;;;;;;5054026;28;20102;-47
2023/04/29 09:42:43;;;;;;;7.47;3.00;;;;;;;;;;5074422;28;20035;-47
2023/04/29 09:45:11;;;;;;;9.75;3.40;;;;;;;;;;5074150;28;20075;-47
2023/04/29 09:47:38;;;;;;;9.98;2.67;;;;;;;;;;5074248;28;20549;-47
2023/04/29 09:50:15;;;;;;;7.03;2.90;;;;;;;;;;5074132;28;20091;-47
2023/04/29 09:52:42;;;;;;;6.43;3.05;;;;;;;;;;5074262;28;20037;-47
2023/04/29 09:55:09;;;;;;;5.68;2.90;;;;;;;;;;5074231;28;20029;-49
2023/04/29 09:57:40;;;;;;;7.50;3.13;;;;;;;;;;5074122;28;20068;-47
2023/04/29 10:00:08;;;;;;;6.97;3.00;;;;;;;;;;5073948;28;20048;-47
2023/04/29 10:02:35;;;;;;;7.53;3.40;;;;;;;;;;5074026;28;20680;-48
2023/04/29 10:05:02;;;;;;;6.97;2.92;;;;;;;;;;5073488;28;20054;-47
2023/04/29 10:07:30;;;;;;;7.60;3.50;;;;;;;;;;5073538;28;20032;-47
2023/04/29 10:09:57;;;;;;;6.72;2.80;;;;;;;;;;5073826;28;20028;-48
2023/04/29 10:12:25;;;;;;;5.63;2.95;;;;;;;;;;5073741;28;20028;-47
2023/04/29 10:15:03;;;;;;;7.38;2.83;;;;;;;;;;5073843;28;20029;-47
2023/04/29 10:17:33;;;;;;;11.65;3.40;;;;;;;;;;5073708;28;20094;-47
2023/04/29 10:20:05;;;;;;;9.80;3.00;;;;;;;;;;5073851;28;20052;-47
2023/04/29 10:22:44;;;;;;;4.80;2.67;;;;;;;;;;5073767;28;20086;-47
2023/04/29 10:25:13;;;;;;;12.02;3.42;;;;;;;;;;5073475;28;20032;-48
2023/04/29 10:27:43;;;;;;;7.53;3.22;;;;;;;;;;5073505;28;20397;-48
2023/04/29 10:30:13;;;;;;;4.80;2.67;;;;;;;;;;5073482;28;20028;-47
2023/04/29 10:32:41;;;;;;;8.65;3.15;;;;;;;;;;5073402;28;20147;-48
2023/04/29 10:35:09;;;;;;;8.38;3.10;;;;;;;;;;5073485;28;20119;-47
2023/04/29 10:37:39;;;;;;;6.03;3.10;;;;;;;;;;5073373;28;20618;-47
2023/04/29 10:40:09;;;;;;;5.90;3.08;;;;;;;;;;5073304;28;20395;-47
2023/04/29 10:42:42;;;;;;;6.43;3.38;;;;;;;;;;5073022;28;20029;-49
2023/04/29 10:45:35;;;;;;;7.70;3.05;;;;;;;;;;5073354;28;20123;-48
2023/04/29 10:48:05;;;;;;;8.75;3.35;;;;;;;;;;5073166;28;20044;-47
2023/04/29 10:50:32;;;;;;;8.65;3.20;;;;;;;;;;5073265;28;20024;-47
2023/04/29 10:53:03;;;;;;;9.00;3.03;;;;;;;;;;5072995;28;20107;-47
2023/04/29 10:55:30;;;;;;;10.15;3.42;;;;;;;;;;5073032;28;20100;-47
2023/04/29 10:57:57;;;;;;;8.13;3.05;;;;;;;;;;5072893;28;20518;-47
2023/04/29 11:00:28;;;;;;;8.88;3.03;;;;;;;;;;5071690;28;20043;-47
2023/04/29 11:02:55;;;;;;;5.35;2.72;;;;;;;;;;5069181;28;20489;-47
2023/04/29 11:05:40;;;;;;;8.77;2.95;;;;;;;;;;5072721;28;20086;-46
2023/04/29 11:08:11;;;;;;;7.63;3.22;;;;;;;;;;5072748;28;20024;-48
2023/04/29 11:10:42;;;;;;;8.45;2.97;;;;;;;;;;5072501;28;20083;-48
2023/04/29 11:13:28;;;;;;;12.18;3.40;;;;;;;;;;5072575;28;20055;-48
2023/04/29 11:16:06;;;;;;;8.07;3.22;;;;;;;;;;5072666;28;20028;-48
2023/04/29 11:18:36;;;;;;;11.18;3.22;;;;;;;;;;5072423;28;20432;-48
2023/04/29 11:21:05;;;;;;;8.93;3.40;;;;;;;;;;5072623;28;20029;-47
2023/04/29 11:23:36;;;;;;;8.15;3.00;;;;;;;;;;5072439;28;20159;-47
2023/04/29 11:26:03;;;;;;;8.35;3.33;;;;;;;;;;5072477;28;20078;-48
2023/04/29 11:28:31;;;;;;;11.55;3.33;;;;;;;;;;5072399;28;20037;-47
2023/04/29 11:30:58;;;;;;;10.00;3.60;;;;;;;;;;5071376;28;20130;-47
2023/04/29 11:33:28;;;;;;;7.70;3.30;;;;;;;;;;5072111;28;20035;-48
2023/04/29 11:35:55;;;;;;;12.38;3.70;;;;;;;;;;5072342;28;20094;-49
2023/04/29 11:38:29;;;;;;;10.98;3.60;;;;;;;;;;5072153;28;20047;-49
2023/04/29 11:40:56;;;;;;;19.25;3.42;;;;;;;;;;5072165;28;20032;-48
2023/04/29 11:43:24;;;;;;;9.48;3.22;;;;;;;;;;5072045;28;20031;-50
2023/04/29 11:45:52;;;;;;;14.25;3.78;;;;;;;;;;5072135;28;20020;-47
2023/04/29 11:48:19;;;;;;;8.40;3.38;;;;;;;;;;5072068;28;20032;-47
2023/04/29 11:50:47;;;;;;;9.63;4.05;;;;;;;;;;5072042;28;20034;-48
2023/04/29 11:53:14;;;;;;;13.13;3.78;;;;;;;;;;5071842;28;20164;-47
2023/04/29 11:55:45;;;;;;;13.40;4.20;;;;;;;;;;5071865;28;20028;-47
2023/04/29 11:58:12;;;;;;;8.68;3.85;;;;;;;;;;5071878;28;20036;-47
2023/04/29 12:00:39;;;;;;;8.88;3.58;;;;;;;;;;5081964;28;20043;-48
2023/04/29 12:03:15;;;;;;;13.70;4.15;;;;;;;;;;5091840;28;20165;-47
2023/04/29 12:05:50;;;;;;;14.48;4.15;;;;;;;;;;5092031;28;20024;-47
2023/04/29 12:08:25;;;;;;;8.20;3.70;;;;;;;;;;5091840;28;20039;-48
2023/04/29 12:10:52;;;;;;;7.35;3.80;;;;;;;;;;5091882;28;20024;-47
2023/04/29 12:13:20;;;;;;;12.65;3.92;;;;;;;;;;5088491;28;20023;-49
2023/04/29 12:15:47;;;;;;;8.70;3.58;;;;;;;;;;5089126;28;20032;-47
2023/04/29 12:18:15;;;;;;;5.90;3.20;;;;;;;;;;5074004;28;20048;-46
2023/04/29 12:20:42;;;;;;;10.68;3.72;;;;;;;;;;5081185;28;20474;-47
2023/04/29 12:23:12;;;;;;;10.48;3.80;;;;;;;;;;5081922;28;20024;-48
2023/04/29 12:25:41;;;;;;;13.60;3.80;;;;;;;;;;5081105;28;20048;-47
2023/04/29 12:28:14;;;;;;;10.95;4.07;;;;;;;;;;5081095;28;20043;-48
2023/04/29 12:30:44;;;;;;;10.52;3.60;;;;;;;;;;5081403;28;20021;-47
2023/04/29 12:33:11;;;;;;;11.05;3.88;;;;;;;;;;5088261;28;20036;-47
2023/04/29 12:35:38;;;;;;;13.57;4.28;;;;;;;;;;5091321;28;20548;-50
2023/04/29 12:38:05;;;;;;;16.80;4.07;;;;;;;;;;5091075;28;20036;-47
2023/04/29 12:40:32;;;;;;;11.00;4.05;;;;;;;;;;5091196;28;20445;-47
2023/04/29 12:43:07;;;;;;;11.10;4.20;;;;;;;;;;5090997;28;20031;-47
2023/04/29 12:45:35;;;;;;;9.00;3.47;;;;;;;;;;5091265;28;20032;-47
2023/04/29 12:48:03;;;;;;;10.98;4.05;;;;;;;;;;5090517;28;20082;-47
2023/04/29 12:50:34;;;;;;;9.65;3.83;;;;;;;;;;5089991;28;20075;-47
2023/04/29 12:53:03;;;;;;;6.47;3.50;;;;;;;;;;5090538;28;20431;-47
2023/04/29 12:55:33;;;;;;;12.07;4.05;;;;;;;;;;5090434;28;20097;-47
2023/04/29 12:58:00;;;;;;;10.30;3.97;;;;;;;;;;5090740;28;20040;-46
2023/04/29 13:00:27;;;;;;;12.30;3.78;;;;;;;;;;5090498;28;20040;-47
2023/04/29 13:02:54;;;;;;;15.13;3.60;;;;;;;;;;5090565;28;20051;-48
2023/04/29 13:05:21;;;;;;;15.90;4.20;;;;;;;;;;5091107;28;20123;-47
2023/04/29 13:07:49;;;;;;;20.17;4.28;;;;;;;;;;5089189;28;20035;-46
2023/04/29 13:10:16;;;;;;;18.83;4.40;;;;;;;;;;5091054;28;20056;-47
2023/04/29 13:12:43;;;;;;;15.73;3.75;;;;;;;;;;5090919;28;20032;-46
2023/04/29 13:15:10;;;;;;;27.15;4.10;;;;;;;;;;5091105;28;20027;-47
2023/04/29 13:17:37;;;;;;;21.70;4.47;;;;;;;;;;5090114;28;20040;-46
2023/04/29 13:20:06;;;;;;;29.85;4.18;;;;;;;;;;5090663;28;20044;-47
2023/04/29 13:22:36;;;;;;;26.15;4.43;;;;;;;;;;5090883;28;20032;-46
2023/04/29 13:25:03;;;;;;;22.90;4.78;;;;;;;;;;5090449;28;20032;-50
2023/04/29 13:27:30;;;;;;;23.13;4.85;;;;;;;;;;5072096;28;20038;-47
2023/04/29 13:29:57;;;;;;;18.25;4.00;;;;;;;;;;5089869;28;20062;-47
2023/04/29 13:32:25;;;;;;;14.65;4.40;;;;;;;;;;5089586;28;20047;-47
2023/04/29 13:34:52;;;;;;;21.35;4.70;;;;;;;;;;5090030;28;20036;-46
2023/04/29 13:37:19;;;;;;;14.35;3.70;;;;;;;;;;5089733;28;20402;-46
2023/04/29 13:39:46;;;;;;;16.30;4.90;;;;;;;;;;5090364;28;20042;-46
2023/04/29 13:42:13;;;;;;;16.45;4.13;;;;;;;;;;5093592;28;20028;-45
2023/04/29 13:44:43;;;;;;;13.55;4.38;;;;;;;;;;5094359;28;20115;-48
2023/04/29 13:47:11;;;;;;;19.75;4.55;;;;;;;;;;5094304;28;20094;-48
2023/04/29 13:49:39;;;;;;;22.45;4.35;;;;;;;;;;5094440;28;20048;-48
2023/04/29 13:52:06;;;;;;;15.80;4.20;;;;;;;;;;5087699;28;20036;-48
2023/04/29 13:54:33;;;;;;;22.95;4.43;;;;;;;;;;5073937;28;20027;-47
2023/04/29 13:57:04;;;;;;;17.02;4.00;;;;;;;;;;5074191;28;20425;-49
2023/04/29 13:59:32;;;;;;;32.05;4.93;;;;;;;;;;5073420;28;20036;-48
2023/04/29 14:01:59;;;;;;;33.22;4.47;;;;;;;;;;5082896;28;20046;-47
2023/04/29 14:04:26;;;;;;;23.13;4.32;;;;;;;;;;5094138;28;20032;-48
2023/04/29 14:06:54;;;;;;;21.40;4.78;;;;;;;;;;5094290;28;20524;-48
2023/04/29 14:09:21;;;;;;;22.67;4.57;;;;;;;;;;5084459;28;20032;-49
2023/04/29 14:11:49;;;;;;;18.48;4.80;;;;;;;;;;5079919;28;20028;-49
2023/04/29 14:14:17;;;;;;;25.58;4.50;;;;;;;;;;5085408;28;20028;-48
2023/04/29 14:16:44;;;;;;;19.55;4.10;;;;;;;;;;5092090;28;20020;-48
2023/04/29 14:19:11;;;;;;;20.00;4.47;;;;;;;;;;5092001;28;20058;-50
2023/04/29 14:21:38;;;;;;;19.95;4.55;;;;;;;;;;5089698;28;20024;-48
2023/04/29 14:24:05;;;;;;;22.60;4.53;;;;;;;;;;5080493;28;20041;-48
2023/04/29 14:26:32;;;;;;;23.80;4.95;;;;;;;;;;5073763;28;20024;-49
2023/04/29 14:29:00;;;;;;;17.75;4.47;;;;;;;;;;5087170;28;20028;-49
2023/04/29 14:31:28;;;;;;;25.15;5.20;;;;;;;;;;5087200;28;20449;-46
2023/04/29 14:33:55;;;;;;;33.30;4.70;;;;;;;;;;5093784;28;20058;-45
2023/04/29 14:36:22;;;;;;;19.65;4.00;;;;;;;;;;5093701;28;20082;-46
2023/04/29 14:38:49;;;;;;;19.25;4.35;;;;;;;;;;5093196;28;20588;-45
2023/04/29 14:41:16;;;;;;;21.83;4.35;;;;;;;;;;5093601;28;20024;-46
2023/04/29 14:43:44;;;;;;;28.67;4.38;;;;;;;;;;5093585;28;20036;-46
2023/04/29 14:46:12;;;;;;;20.23;4.47;;;;;;;;;;5092422;28;20028;-46
2023/04/29 14:48:39;;;;;;;18.35;4.97;;;;;;;;;;5089576;28;20024;-45
2023/04/29 14:51:06;;;;;;;23.35;4.22;;;;;;;;;;5085272;28;20475;-45